sensor_id;sensor_type;location;lat;lon;timestamp;pressure;altitude;pressure_sealevel;temperature;humidity
64933;BME280;51446;53.850;10.662;2023-02-28T00:02:12;103129.63;;;2.87;100.00
64933;BME280;51446;53.850;10.662;2023-02-28T00:04:38;103130.81;;;3.11;100.00
64933;BME280;51446;53.850;10.662;2023-02-28T00:07:03;103124.56;;;3.09;100.00
64933;BME280;51446;53.850;10.662;2023-02-28T00:09:28;103124.69;;;2.90;100.00
64933;BME280;51446;53.850;10.662;2023-02-28T00:11:53;103121.09;;;2.88;100.00
64933;BME280;51446;53.850;10.662;2023-02-28T00:14:19;103124.19;;;2.94;100.00
64933;BME280;51446;53.850;10.662;2023-02-28T00:16:44;103127.94;;;2.88;100.00
64933;BME280;51446;53.850;10.662;2023-02-28T00:19:09;103127.94;;;2.98;100.00
64933;BME280;51446;53.850;10.662;2023-02-28T00:21:34;103122.75;;;2.88;100.00
64933;BME280;51446;53.850;10.662;2023-02-28T00:24:00;103116.16;;;2.81;100.00
64933;BME280;51446;53.850;10.662;2023-02-28T00:26:25;103124.69;;;2.80;100.00
64933;BME280;51446;53.850;10.662;2023-02-28T00:28:51;103122.63;;;2.76;100.00
64933;BME280;51446;53.850;10.662;2023-02-28T00:31:17;103123.63;;;2.68;100.00
64933;BME280;51446;53.850;10.662;2023-02-28T00:33:43;103125.59;;;2.70;100.00
64933;BME280;51446;53.850;10.662;2023-02-28T00:36:10;103120.53;;;2.62;100.00
64933;BME280;51446;53.850;10.662;2023-02-28T00:38:37;103120.28;;;2.58;100.00
64933;BME280;51446;53.850;10.662;2023-02-28T00:41:02;103122.09;;;2.70;100.00
64933;BME280;51446;53.850;10.662;2023-02-28T00:43:30;103125.72;;;2.62;100.00
64933;BME280;51446;53.850;10.662;2023-02-28T00:45:55;103121.28;;;2.60;100.00
64933;BME280;51446;53.850;10.662;2023-02-28T00:48:20;103125.34;;;2.67;100.00
64933;BME280;51446;53.850;10.662;2023-02-28T00:50:48;103128.19;;;2.70;100.00
64933;BME280;51446;53.850;10.662;2023-02-28T00:53:14;103123.25;;;2.53;100.00
64933;BME280;51446;53.850;10.662;2023-02-28T00:55:39;103115.47;;;2.53;100.00
64933;BME280;51446;53.850;10.662;2023-02-28T00:58:05;103132.47;;;2.59;100.00
64933;BME280;51446;53.850;10.662;2023-02-28T01:00:30;103124.19;;;2.64;100.00
64933;BME280;51446;53.850;10.662;2023-02-28T01:02:56;103128.94;;;2.59;100.00
64933;BME280;51446;53.850;10.662;2023-02-28T01:05:21;103126.34;;;2.69;100.00
64933;BME280;51446;53.850;10.662;2023-02-28T01:07:46;103121.66;;;2.45;100.00
64933;BME280;51446;53.850;10.662;2023-02-28T01:10:11;103107.41;;;2.39;100.00
64933;BME280;51446;53.850;10.662;2023-02-28T01:12:37;103126.59;;;2.62;100.00
64933;BME280;51446;53.850;10.662;2023-02-28T01:15:03;103122.41;;;2.33;100.00
64933;BME280;51446;53.850;10.662;2023-02-28T01:17:28;103124.22;;;2.34;100.00
64933;BME280;51446;53.850;10.662;2023-02-28T01:19:54;103117.28;;;2.43;100.00
64933;BME280;51446;53.850;10.662;2023-02-28T01:22:20;103118.69;;;2.40;100.00
64933;BME280;51446;53.850;10.662;2023-02-28T01:24:45;103125.31;;;2.47;100.00
64933;BME280;51446;53.850;10.662;2023-02-28T01:27:11;103118.16;;;2.44;100.00
64933;BME280;51446;53.850;10.662;2023-02-28T01:29:36;103120.88;;;2.46;100.00
64933;BME280;51446;53.850;10.662;2023-02-28T01:32:01;103126.06;;;2.46;100.00
64933;BME280;51446;53.850;10.662;2023-02-28T01:34:26;103125.69;;;2.41;100.00
64933;BME280;51446;53.850;10.662;2023-02-28T01:36:51;103127.56;;;2.33;100.00
64933;BME280;51446;53.850;10.662;2023-02-28T01:39:17;103126.03;;;2.25;100.00
64933;BME280;51446;53.850;10.662;2023-02-28T01:41:42;103132.63;;;2.32;100.00
64933;BME280;51446;53.850;10.662;2023-02-28T01:47:11;103134.59;;;2.34;100.00
64933;BME280;51446;53.850;10.662;2023-02-28T01:49:36;103126.66;;;2.22;100.00
64933;BME280;51446;53.850;10.662;2023-02-28T01:52:02;103127.31;;;2.30;100.00
64933;BME280;51446;53.850;10.662;2023-02-28T01:54:30;103124.47;;;2.27;100.00
64933;BME280;51446;53.850;10.662;2023-02-28T01:57:01;103125.09;;;2.24;100.00
64933;BME280;51446;53.850;10.662;2023-02-28T01:59:55;103126.06;;;2.46;100.00
64933;BME280;51446;53.850;10.662;2023-02-28T02:02:22;103112.25;;;2.55;100.00
64933;BME280;51446;53.850;10.662;2023-02-28T02:04:59;103119.66;;;3.02;100.00
64933;BME280;51446;53.850;10.662;2023-02-28T02:07:34;103118.75;;;3.02;100.00
64933;BME280;51446;53.850;10.662;2023-02-28T02:13:05;103124.47;;;2.27;100.00
64933;BME280;51446;53.850;10.662;2023-02-28T02:15:53;103129.03;;;2.00;100.00
64933;BME280;51446;53.850;10.662;2023-02-28T02:18:44;103126.16;;;1.97;100.00
64933;BME280;51446;53.850;10.662;2023-02-28T02:21:39;103123.06;;;2.01;100.00
64933;BME280;51446;53.850;10.662;2023-02-28T02:24:28;103116.25;;;2.02;100.00
64933;BME280;51446;53.850;10.662;2023-02-28T02:27:32;103118.91;;;1.93;100.00
64933;BME280;51446;53.850;10.662;2023-02-28T02:35:52;103108.59;;;1.74;100.00
64933;BME280;51446;53.850;10.662;2023-02-28T02:38:33;103110.78;;;1.69;100.00
64933;BME280;51446;53.850;10.662;2023-02-28T02:41:04;103109.06;;;1.70;100.00
64933;BME280;51446;53.850;10.662;2023-02-28T02:43:40;103112.41;;;1.59;100.00
64933;BME280;51446;53.850;10.662;2023-02-28T02:46:14;103113.88;;;1.46;100.00
64933;BME280;51446;53.850;10.662;2023-02-28T02:48:43;103116.94;;;1.42;100.00
64933;BME280;51446;53.850;10.662;2023-02-28T02:51:13;103115.69;;;1.47;100.00
64933;BME280;51446;53.850;10.662;2023-02-28T02:54:01;103122.19;;;1.33;100.00
64933;BME280;51446;53.850;10.662;2023-02-28T02:56:30;103112.13;;;1.17;100.00
64933;BME280;51446;53.850;10.662;2023-02-28T02:59:02;103105.47;;;1.11;100.00
64933;BME280;51446;53.850;10.662;2023-02-28T03:01:29;103115.81;;;1.11;100.00
64933;BME280;51446;53.850;10.662;2023-02-28T03:03:58;103110.72;;;1.02;100.00
64933;BME280;51446;53.850;10.662;2023-02-28T03:06:25;103113.78;;;0.98;100.00
64933;BME280;51446;53.850;10.662;2023-02-28T03:08:51;103122.44;;;0.98;100.00
64933;BME280;51446;53.850;10.662;2023-02-28T03:11:16;103120.97;;;0.92;100.00
64933;BME280;51446;53.850;10.662;2023-02-28T03:16:54;103120.03;;;0.72;100.00
64933;BME280;51446;53.850;10.662;2023-02-28T03:27:15;103129.19;;;0.60;100.00
64933;BME280;51446;53.850;10.662;2023-02-28T03:29:46;103129.66;;;0.56;100.00
64933;BME280;51446;53.850;10.662;2023-02-28T03:32:27;103128.28;;;0.87;100.00
64933;BME280;51446;53.850;10.662;2023-02-28T03:35:00;103128.81;;;1.21;100.00
64933;BME280;51446;53.850;10.662;2023-02-28T03:37:31;103140.13;;;1.13;100.00
64933;BME280;51446;53.850;10.662;2023-02-28T03:40:05;103133.38;;;0.77;100.00
64933;BME280;51446;53.850;10.662;2023-02-28T03:42:35;103131.88;;;0.70;100.00
64933;BME280;51446;53.850;10.662;2023-02-28T03:45:11;103136.56;;;0.74;100.00
64933;BME280;51446;53.850;10.662;2023-02-28T03:47:50;103136.50;;;1.11;100.00
64933;BME280;51446;53.850;10.662;2023-02-28T03:50:53;103139.94;;;1.20;100.00
64933;BME280;51446;53.850;10.662;2023-02-28T03:55:42;103135.66;;;1.01;100.00
64933;BME280;51446;53.850;10.662;2023-02-28T03:58:24;103137.06;;;1.17;100.00
64933;BME280;51446;53.850;10.662;2023-02-28T04:00:56;103137.34;;;0.92;100.00
64933;BME280;51446;53.850;10.662;2023-02-28T04:03:23;103137.56;;;0.85;100.00
64933;BME280;51446;53.850;10.662;2023-02-28T04:05:53;103135.34;;;0.79;100.00
64933;BME280;51446;53.850;10.662;2023-02-28T04:08:19;103132.75;;;0.79;100.00
64933;BME280;51446;53.850;10.662;2023-02-28T04:10:49;103134.66;;;0.63;100.00
64933;BME280;51446;53.850;10.662;2023-02-28T04:13:16;103138.31;;;0.56;100.00
64933;BME280;51446;53.850;10.662;2023-02-28T04:15:42;103132.94;;;0.72;100.00
64933;BME280;51446;53.850;10.662;2023-02-28T04:18:08;103131.03;;;0.61;100.00
64933;BME280;51446;53.850;10.662;2023-02-28T04:20:33;103134.78;;;0.92;100.00
64933;BME280;51446;53.850;10.662;2023-02-28T04:22:58;103137.28;;;0.54;100.00
64933;BME280;51446;53.850;10.662;2023-02-28T04:25:23;103141.34;;;0.15;100.00
64933;BME280;51446;53.850;10.662;2023-02-28T04:27:49;103139.72;;;-0.10;100.00
64933;BME280;51446;53.850;10.662;2023-02-28T04:30:14;103143.88;;;-0.30;100.00
64933;BME280;51446;53.850;10.662;2023-02-28T04:32:39;103141.88;;;-0.24;100.00
64933;BME280;51446;53.850;10.662;2023-02-28T04:35:05;103145.22;;;-0.33;100.00
64933;BME280;51446;53.850;10.662;2023-02-28T04:37:30;103154.78;;;-0.50;100.00
64933;BME280;51446;53.850;10.662;2023-02-28T04:40:00;103148.09;;;-0.48;100.00
64933;BME280;51446;53.850;10.662;2023-02-28T04:42:26;103157.38;;;-0.50;100.00
64933;BME280;51446;53.850;10.662;2023-02-28T04:44:51;103152.50;;;-0.56;100.00
64933;BME280;51446;53.850;10.662;2023-02-28T04:47:17;103147.94;;;-0.41;100.00
64933;BME280;51446;53.850;10.662;2023-02-28T04:49:42;103154.19;;;-0.39;100.00
64933;BME280;51446;53.850;10.662;2023-02-28T04:52:07;103156.91;;;-0.55;100.00
64933;BME280;51446;53.850;10.662;2023-02-28T04:54:34;103155.09;;;-0.56;100.00
64933;BME280;51446;53.850;10.662;2023-02-28T04:57:00;103156.56;;;-0.75;100.00
64933;BME280;51446;53.850;10.662;2023-02-28T04:59:26;103152.78;;;-0.88;100.00
64933;BME280;51446;53.850;10.662;2023-02-28T05:01:51;103148.84;;;-0.75;100.00
64933;BME280;51446;53.850;10.662;2023-02-28T05:04:17;103155.38;;;-0.70;100.00
64933;BME280;51446;53.850;10.662;2023-02-28T05:06:42;103146.84;;;-0.87;100.00
64933;BME280;51446;53.850;10.662;2023-02-28T05:09:08;103145.78;;;-0.97;100.00
64933;BME280;51446;53.850;10.662;2023-02-28T05:11:34;103149.22;;;-1.14;100.00
64933;BME280;51446;53.850;10.662;2023-02-28T05:14:01;103139.16;;;-1.37;100.00
64933;BME280;51446;53.850;10.662;2023-02-28T05:16:27;103142.72;;;-1.19;100.00
64933;BME280;51446;53.850;10.662;2023-02-28T05:18:52;103152.59;;;-1.07;100.00
64933;BME280;51446;53.850;10.662;2023-02-28T05:21:30;103150.44;;;-1.19;100.00
64933;BME280;51446;53.850;10.662;2023-02-28T05:23:58;103156.00;;;-1.32;100.00
64933;BME280;51446;53.850;10.662;2023-02-28T05:26:25;103158.09;;;-1.37;100.00
64933;BME280;51446;53.850;10.662;2023-02-28T05:28:51;103159.44;;;-1.41;100.00
64933;BME280;51446;53.850;10.662;2023-02-28T05:31:16;103160.47;;;-1.47;100.00
64933;BME280;51446;53.850;10.662;2023-02-28T05:33:41;103160.63;;;-1.46;100.00
64933;BME280;51446;53.850;10.662;2023-02-28T05:36:07;103166.69;;;-1.45;100.00
64933;BME280;51446;53.850;10.662;2023-02-28T05:38:32;103163.47;;;-1.51;100.00
64933;BME280;51446;53.850;10.662;2023-02-28T05:40:57;103161.06;;;-1.50;100.00
64933;BME280;51446;53.850;10.662;2023-02-28T05:43:23;103166.66;;;-1.54;100.00
64933;BME280;51446;53.850;10.662;2023-02-28T05:45:48;103171.31;;;-1.59;100.00
64933;BME280;51446;53.850;10.662;2023-02-28T05:48:14;103170.44;;;-1.50;100.00
64933;BME280;51446;53.850;10.662;2023-02-28T05:50:39;103171.19;;;-1.51;100.00
64933;BME280;51446;53.850;10.662;2023-02-28T05:53:04;103186.03;;;-1.49;100.00
64933;BME280;51446;53.850;10.662;2023-02-28T05:55:30;103182.81;;;-1.64;100.00
64933;BME280;51446;53.850;10.662;2023-02-28T05:57:55;103183.69;;;-1.63;100.00
64933;BME280;51446;53.850;10.662;2023-02-28T06:00:21;103190.84;;;-1.61;100.00
64933;BME280;51446;53.850;10.662;2023-02-28T06:02:46;103194.59;;;-1.66;100.00
64933;BME280;51446;53.850;10.662;2023-02-28T06:05:14;103179.38;;;-1.55;100.00
64933;BME280;51446;53.850;10.662;2023-02-28T06:07:39;103184.22;;;-1.50;100.00
64933;BME280;51446;53.850;10.662;2023-02-28T06:10:05;103181.44;;;-1.60;100.00
64933;BME280;51446;53.850;10.662;2023-02-28T06:12:31;103183.28;;;-1.59;100.00
64933;BME280;51446;53.850;10.662;2023-02-28T06:14:56;103193.41;;;-1.61;100.00
64933;BME280;51446;53.850;10.662;2023-02-28T06:17:21;103191.78;;;-1.51;100.00
64933;BME280;51446;53.850;10.662;2023-02-28T06:19:46;103187.63;;;-1.33;100.00
64933;BME280;51446;53.850;10.662;2023-02-28T06:22:13;103189.06;;;-1.19;100.00
64933;BME280;51446;53.850;10.662;2023-02-28T06:24:38;103195.63;;;-0.97;100.00
64933;BME280;51446;53.850;10.662;2023-02-28T06:27:03;103191.91;;;-0.74;100.00
64933;BME280;51446;53.850;10.662;2023-02-28T06:29:31;103192.72;;;-0.49;100.00
64933;BME280;51446;53.850;10.662;2023-02-28T06:31:56;103193.44;;;0.03;100.00
64933;BME280;51446;53.850;10.662;2023-02-28T06:34:22;103197.06;;;0.22;100.00
64933;BME280;51446;53.850;10.662;2023-02-28T06:36:50;103164.91;;;0.55;100.00
64933;BME280;51446;53.850;10.662;2023-02-28T06:39:15;103188.03;;;1.09;100.00
64933;BME280;51446;53.850;10.662;2023-02-28T06:41:41;103193.53;;;1.50;100.00
64933;BME280;51446;53.850;10.662;2023-02-28T06:44:15;103190.44;;;1.93;100.00
64933;BME280;51446;53.850;10.662;2023-02-28T06:46:41;103189.47;;;2.80;100.00
64933;BME280;51446;53.850;10.662;2023-02-28T06:49:07;103188.34;;;3.07;100.00
64933;BME280;51446;53.850;10.662;2023-02-28T06:51:37;103189.41;;;3.40;100.00
64933;BME280;51446;53.850;10.662;2023-02-28T06:54:03;103182.97;;;3.78;100.00
64933;BME280;51446;53.850;10.662;2023-02-28T06:56:28;103184.25;;;4.92;100.00
64933;BME280;51446;53.850;10.662;2023-02-28T06:58:54;103185.84;;;6.17;98.83
64933;BME280;51446;53.850;10.662;2023-02-28T07:01:19;103180.38;;;7.39;86.70
64933;BME280;51446;53.850;10.662;2023-02-28T07:03:45;103180.88;;;7.33;83.58
64933;BME280;51446;53.850;10.662;2023-02-28T07:06:11;103174.41;;;7.93;73.13
64933;BME280;51446;53.850;10.662;2023-02-28T07:08:37;103173.00;;;8.95;67.95
64933;BME280;51446;53.850;10.662;2023-02-28T07:11:02;103177.34;;;8.95;59.77
64933;BME280;51446;53.850;10.662;2023-02-28T07:13:28;103178.06;;;8.92;61.27
64933;BME280;51446;53.850;10.662;2023-02-28T07:15:58;103182.59;;;8.40;68.30
64933;BME280;51446;53.850;10.662;2023-02-28T07:18:24;103173.34;;;9.60;55.91
64933;BME280;51446;53.850;10.662;2023-02-28T07:20:50;103180.13;;;9.71;54.10
64933;BME280;51446;53.850;10.662;2023-02-28T07:23:16;103174.16;;;11.01;52.10
64933;BME280;51446;53.850;10.662;2023-02-28T07:25:41;103179.75;;;9.35;55.21
64933;BME280;51446;53.850;10.662;2023-02-28T07:28:06;103181.72;;;9.39;60.25
64933;BME280;51446;53.850;10.662;2023-02-28T07:30:31;103183.41;;;10.45;51.88
64933;BME280;51446;53.850;10.662;2023-02-28T07:32:57;103184.81;;;11.55;49.37
64933;BME280;51446;53.850;10.662;2023-02-28T07:35:22;103175.84;;;12.04;46.83
64933;BME280;51446;53.850;10.662;2023-02-28T07:37:48;103182.59;;;12.17;45.14
64933;BME280;51446;53.850;10.662;2023-02-28T07:40:13;103184.25;;;13.11;44.13
64933;BME280;51446;53.850;10.662;2023-02-28T07:42:40;103188.00;;;12.57;44.11
64933;BME280;51446;53.850;10.662;2023-02-28T07:45:06;103192.47;;;11.68;44.74
64933;BME280;51446;53.850;10.662;2023-02-28T07:47:32;103192.41;;;11.67;44.92
64933;BME280;51446;53.850;10.662;2023-02-28T07:49:57;103187.00;;;12.54;44.82
64933;BME280;51446;53.850;10.662;2023-02-28T07:52:23;103200.28;;;13.76;42.40
64933;BME280;51446;53.850;10.662;2023-02-28T07:54:49;103188.31;;;12.63;42.86
64933;BME280;51446;53.850;10.662;2023-02-28T07:57:15;103203.78;;;10.98;47.48
64933;BME280;51446;53.850;10.662;2023-02-28T07:59:41;103195.78;;;11.99;46.99
64933;BME280;51446;53.850;10.662;2023-02-28T08:02:06;103191.91;;;15.01;40.57
64933;BME280;51446;53.850;10.662;2023-02-28T08:04:32;103198.41;;;13.73;41.87
64933;BME280;51446;53.850;10.662;2023-02-28T08:06:57;103193.25;;;14.43;40.72
64933;BME280;51446;53.850;10.662;2023-02-28T08:09:22;103202.97;;;14.66;39.55
64933;BME280;51446;53.850;10.662;2023-02-28T08:11:48;103194.53;;;13.86;40.33
64933;BME280;51446;53.850;10.662;2023-02-28T08:14:13;103191.97;;;13.66;41.63
64933;BME280;51446;53.850;10.662;2023-02-28T08:16:38;103198.50;;;11.84;44.85
64933;BME280;51446;53.850;10.662;2023-02-28T08:19:04;103188.63;;;14.14;41.01
64933;BME280;51446;53.850;10.662;2023-02-28T08:21:29;103190.03;;;13.62;41.27
64933;BME280;51446;53.850;10.662;2023-02-28T08:23:54;103183.25;;;15.05;39.50
64933;BME280;51446;53.850;10.662;2023-02-28T08:26:22;103185.59;;;13.82;37.74
64933;BME280;51446;53.850;10.662;2023-02-28T08:28:47;103178.78;;;13.66;38.85
64933;BME280;51446;53.850;10.662;2023-02-28T08:31:15;103183.06;;;13.24;40.97
64933;BME280;51446;53.850;10.662;2023-02-28T08:33:41;103193.94;;;13.72;39.57
64933;BME280;51446;53.850;10.662;2023-02-28T08:36:07;103191.31;;;14.84;38.04
64933;BME280;51446;53.850;10.662;2023-02-28T08:38:34;103192.53;;;13.59;39.44
64933;BME280;51446;53.850;10.662;2023-02-28T08:41:01;103198.50;;;13.14;41.55
64933;BME280;51446;53.850;10.662;2023-02-28T08:43:27;103192.84;;;13.46;39.17
64933;BME280;51446;53.850;10.662;2023-02-28T08:45:53;103195.19;;;12.79;41.46
64933;BME280;51446;53.850;10.662;2023-02-28T08:48:19;103198.63;;;13.37;40.17
64933;BME280;51446;53.850;10.662;2023-02-28T08:50:54;103192.72;;;16.59;36.04
64933;BME280;51446;53.850;10.662;2023-02-28T08:53:19;103192.88;;;16.35;34.21
64933;BME280;51446;53.850;10.662;2023-02-28T08:55:44;103193.53;;;15.99;35.27
64933;BME280;51446;53.850;10.662;2023-02-28T08:58:10;103190.53;;;16.44;34.96
64933;BME280;51446;53.850;10.662;2023-02-28T09:00:35;103197.78;;;14.68;36.62
64933;BME280;51446;53.850;10.662;2023-02-28T09:03:01;103198.69;;;14.02;39.28
64933;BME280;51446;53.850;10.662;2023-02-28T09:05:26;103202.66;;;13.48;40.51
64933;BME280;51446;53.850;10.662;2023-02-28T09:07:54;103202.69;;;15.57;37.40
64933;BME280;51446;53.850;10.662;2023-02-28T09:10:19;103193.84;;;16.96;34.46
64933;BME280;51446;53.850;10.662;2023-02-28T09:12:44;103206.91;;;15.50;36.34
64933;BME280;51446;53.850;10.662;2023-02-28T09:15:12;103210.81;;;13.76;39.49
64933;BME280;51446;53.850;10.662;2023-02-28T09:17:37;103196.63;;;15.85;35.91
64933;BME280;51446;53.850;10.662;2023-02-28T09:20:02;103190.72;;;16.21;34.56
64933;BME280;51446;53.850;10.662;2023-02-28T09:22:28;103202.69;;;14.81;37.17
64933;BME280;51446;53.850;10.662;2023-02-28T09:24:53;103200.75;;;15.51;37.05
64933;BME280;51446;53.850;10.662;2023-02-28T09:27:18;103202.34;;;15.46;36.67
64933;BME280;51446;53.850;10.662;2023-02-28T09:29:44;103205.81;;;18.18;33.34
64933;BME280;51446;53.850;10.662;2023-02-28T09:32:09;103190.63;;;15.91;35.33
64933;BME280;51446;53.850;10.662;2023-02-28T09:34:34;103203.88;;;18.11;33.23
64933;BME280;51446;53.850;10.662;2023-02-28T09:37:02;103191.34;;;19.83;29.97
64933;BME280;51446;53.850;10.662;2023-02-28T09:39:27;103193.16;;;18.87;30.84
64933;BME280;51446;53.850;10.662;2023-02-28T09:41:55;103193.88;;;17.99;31.76
64933;BME280;51446;53.850;10.662;2023-02-28T09:47:03;103193.56;;;19.08;30.00
64933;BME280;51446;53.850;10.662;2023-02-28T09:49:39;103197.38;;;19.72;30.16
64933;BME280;51446;53.850;10.662;2023-02-28T09:52:14;103202.03;;;17.72;30.75
64933;BME280;51446;53.850;10.662;2023-02-28T09:54:41;103198.84;;;18.24;29.27
64933;BME280;51446;53.850;10.662;2023-02-28T09:57:17;103199.34;;;18.45;30.54
64933;BME280;51446;53.850;10.662;2023-02-28T10:05:21;103203.91;;;18.94;28.52
64933;BME280;51446;53.850;10.662;2023-02-28T10:08:00;103199.03;;;20.22;28.39
64933;BME280;51446;53.850;10.662;2023-02-28T10:10:47;103208.34;;;18.12;30.47
64933;BME280;51446;53.850;10.662;2023-02-28T10:13:19;103216.28;;;17.09;29.83
64933;BME280;51446;53.850;10.662;2023-02-28T10:15:51;103218.13;;;17.80;29.81
64933;BME280;51446;53.850;10.662;2023-02-28T10:18:22;103209.75;;;18.76;27.47
64933;BME280;51446;53.850;10.662;2023-02-28T10:20:50;103208.91;;;19.22;28.87
64933;BME280;51446;53.850;10.662;2023-02-28T10:23:38;103204.59;;;18.44;28.80
64933;BME280;51446;53.850;10.662;2023-02-28T10:26:12;103214.66;;;19.00;27.93
64933;BME280;51446;53.850;10.662;2023-02-28T10:28:38;103213.28;;;18.35;28.35
64933;BME280;51446;53.850;10.662;2023-02-28T10:31:04;103205.13;;;19.11;27.41
64933;BME280;51446;53.850;10.662;2023-02-28T10:33:32;103203.69;;;18.83;27.38
64933;BME280;51446;53.850;10.662;2023-02-28T10:36:00;103209.34;;;18.17;28.13
64933;BME280;51446;53.850;10.662;2023-02-28T10:38:28;103213.47;;;16.74;31.09
64933;BME280;51446;53.850;10.662;2023-02-28T10:41:27;103211.19;;;17.16;30.68
64933;BME280;51446;53.850;10.662;2023-02-28T10:44:13;103214.34;;;18.03;29.92
64933;BME280;51446;53.850;10.662;2023-02-28T10:46:40;103207.97;;;18.35;28.29
64933;BME280;51446;53.850;10.662;2023-02-28T10:49:13;103208.91;;;18.80;28.48
64933;BME280;51446;53.850;10.662;2023-02-28T10:51:40;103214.03;;;17.91;28.77
64933;BME280;51446;53.850;10.662;2023-02-28T10:54:15;103206.72;;;18.59;27.93
64933;BME280;51446;53.850;10.662;2023-02-28T10:56:40;103209.44;;;17.85;29.92
64933;BME280;51446;53.850;10.662;2023-02-28T10:59:31;103213.56;;;17.74;28.97
64933;BME280;51446;53.850;10.662;2023-02-28T11:01:56;103208.81;;;17.26;29.95
64933;BME280;51446;53.850;10.662;2023-02-28T11:06:48;103195.84;;;19.87;27.23
64933;BME280;51446;53.850;10.662;2023-02-28T11:09:40;103201.63;;;19.12;27.73
64933;BME280;51446;53.850;10.662;2023-02-28T11:12:08;103200.41;;;18.14;29.62
64933;BME280;51446;53.850;10.662;2023-02-28T11:14:53;103187.50;;;19.15;28.12
64933;BME280;51446;53.850;10.662;2023-02-28T11:17:30;103186.38;;;19.52;26.46
64933;BME280;51446;53.850;10.662;2023-02-28T11:20:03;103191.91;;;19.14;27.51
64933;BME280;51446;53.850;10.662;2023-02-28T11:22:32;103195.03;;;16.18;31.07
64933;BME280;51446;53.850;10.662;2023-02-28T11:25:06;103194.91;;;16.74;30.13
64933;BME280;51446;53.850;10.662;2023-02-28T11:30:00;103190.41;;;15.57;33.23
64933;BME280;51446;53.850;10.662;2023-02-28T11:32:27;103185.06;;;15.82;32.27
64933;BME280;51446;53.850;10.662;2023-02-28T11:35:04;103178.44;;;15.69;31.98
64933;BME280;51446;53.850;10.662;2023-02-28T11:37:39;103182.13;;;15.48;32.18
64933;BME280;51446;53.850;10.662;2023-02-28T11:43:32;103177.91;;;17.63;29.33
64933;BME280;51446;53.850;10.662;2023-02-28T11:46:10;103175.53;;;16.75;31.26
64933;BME280;51446;53.850;10.662;2023-02-28T11:49:04;103170.59;;;16.87;30.37
64933;BME280;51446;53.850;10.662;2023-02-28T11:51:34;103172.50;;;17.95;29.93
64933;BME280;51446;53.850;10.662;2023-02-28T11:57:33;103164.66;;;18.39;29.48
64933;BME280;51446;53.850;10.662;2023-02-28T12:05:43;103152.28;;;18.84;28.09
64933;BME280;51446;53.850;10.662;2023-02-28T12:08:36;103152.63;;;15.10;31.60
64933;BME280;51446;53.850;10.662;2023-02-28T12:11:15;103157.59;;;15.26;32.12
64933;BME280;51446;53.850;10.662;2023-02-28T12:14:17;103148.19;;;16.15;31.53
64933;BME280;51446;53.850;10.662;2023-02-28T12:19:42;103152.22;;;14.05;33.69
64933;BME280;51446;53.850;10.662;2023-02-28T12:22:30;103145.16;;;12.22;36.43
64933;BME280;51446;53.850;10.662;2023-02-28T12:27:45;103129.00;;;14.42;33.19
64933;BME280;51446;53.850;10.662;2023-02-28T12:30:33;103136.84;;;13.11;34.75
64933;BME280;51446;53.850;10.662;2023-02-28T12:33:31;103126.59;;;12.57;36.02
64933;BME280;51446;53.850;10.662;2023-02-28T12:36:00;103123.88;;;13.35;35.12
64933;BME280;51446;53.850;10.662;2023-02-28T12:38:36;103106.91;;;14.87;32.18
64933;BME280;51446;53.850;10.662;2023-02-28T12:41:16;103104.38;;;13.96;33.40
64933;BME280;51446;53.850;10.662;2023-02-28T12:43:52;103105.66;;;13.20;34.89
64933;BME280;51446;53.850;10.662;2023-02-28T12:46:23;103107.03;;;12.71;35.42
64933;BME280;51446;53.850;10.662;2023-02-28T12:48:56;103105.19;;;11.75;37.09
64933;BME280;51446;53.850;10.662;2023-02-28T12:51:24;103106.22;;;11.25;37.88
64933;BME280;51446;53.850;10.662;2023-02-28T12:59:26;103098.72;;;11.15;38.43
64933;BME280;51446;53.850;10.662;2023-02-28T13:02:16;103092.66;;;10.17;41.67
64933;BME280;51446;53.850;10.662;2023-02-28T13:05:04;103095.22;;;9.37;42.23
64933;BME280;51446;53.850;10.662;2023-02-28T13:07:58;103085.09;;;9.59;40.94
64933;BME280;51446;53.850;10.662;2023-02-28T13:10:44;103089.13;;;8.64;41.35
64933;BME280;51446;53.850;10.662;2023-02-28T13:13:18;103082.03;;;9.82;41.09
64933;BME280;51446;53.850;10.662;2023-02-28T13:16:13;103078.03;;;9.58;40.46
64933;BME280;51446;53.850;10.662;2023-02-28T13:18:44;103078.66;;;10.33;40.64
64933;BME280;51446;53.850;10.662;2023-02-28T13:21:23;103076.44;;;9.30;39.96
64933;BME280;51446;53.850;10.662;2023-02-28T13:26:21;103079.28;;;10.27;40.25
64933;BME280;51446;53.850;10.662;2023-02-28T13:34:27;103066.09;;;9.63;41.33
64933;BME280;51446;53.850;10.662;2023-02-28T13:39:48;103074.81;;;8.87;43.48
64933;BME280;51446;53.850;10.662;2023-02-28T13:42:23;103080.78;;;9.29;41.38
64933;BME280;51446;53.850;10.662;2023-02-28T13:45:20;103086.00;;;9.44;41.08
64933;BME280;51446;53.850;10.662;2023-02-28T13:48:00;103084.63;;;9.66;41.43
64933;BME280;51446;53.850;10.662;2023-02-28T13:58:26;103080.16;;;9.80;43.53
64933;BME280;51446;53.850;10.662;2023-02-28T14:01:31;103078.41;;;10.43;40.55
64933;BME280;51446;53.850;10.662;2023-02-28T14:04:54;103075.75;;;10.59;39.88
64933;BME280;51446;53.850;10.662;2023-02-28T14:07:26;103074.38;;;10.66;39.62
64933;BME280;51446;53.850;10.662;2023-02-28T14:10:20;103077.78;;;9.84;38.98
64933;BME280;51446;53.850;10.662;2023-02-28T14:15:48;103076.66;;;10.60;39.05
64933;BME280;51446;53.850;10.662;2023-02-28T14:18:18;103075.56;;;10.89;39.07